sensor_id;sensor_type;location;lat;lon;timestamp;pressure;altitude;pressure_sealevel;temperature;humidity
61805;BME280;47725;47.912;7.356;2022-09-09T00:04:13;98947.55;;;18.36;58.89
61805;BME280;47725;47.912;7.356;2022-09-09T00:07:58;98950.12;;;18.32;58.84
61805;BME280;47725;47.912;7.356;2022-09-09T00:12:02;98953.42;;;18.29;59.03
61805;BME280;47725;47.912;7.356;2022-09-09T00:15:59;98957.59;;;18.26;59.11
61805;BME280;47725;47.912;7.356;2022-09-09T00:20:10;98960.53;;;18.21;59.23
61805;BME280;47725;47.912;7.356;2022-09-09T00:23:58;98961.88;;;18.16;59.45
61805;BME280;47725;47.912;7.356;2022-09-09T00:27:58;98961.11;;;18.12;59.70
61805;BME280;47725;47.912;7.356;2022-09-09T00:32:00;98958.67;;;18.08;60.04
61805;BME280;47725;47.912;7.356;2022-09-09T00:35:58;98957.25;;;18.06;59.83
61805;BME280;47725;47.912;7.356;2022-09-09T00:39:59;98956.61;;;18.03;60.22
61805;BME280;47725;47.912;7.356;2022-09-09T00:47:58;98950.78;;;18.00;60.64
61805;BME280;47725;47.912;7.356;2022-09-09T00:51:59;98950.59;;;18.00;60.46
61805;BME280;47725;47.912;7.356;2022-09-09T00:56:09;98952.29;;;17.99;60.58
61805;BME280;47725;47.912;7.356;2022-09-09T01:00:00;98953.63;;;17.96;60.98
61805;BME280;47725;47.912;7.356;2022-09-09T01:03:58;98953.97;;;17.93;61.24
61805;BME280;47725;47.912;7.356;2022-09-09T01:07:58;98954.69;;;17.89;61.49
61805;BME280;47725;47.912;7.356;2022-09-09T01:16:02;98957.78;;;17.87;61.42
61805;BME280;47725;47.912;7.356;2022-09-09T01:28:02;98957.92;;;17.88;61.08
61805;BME280;47725;47.912;7.356;2022-09-09T01:31:59;98960.27;;;17.89;61.41
61805;BME280;47725;47.912;7.356;2022-09-09T01:36:03;98962.08;;;17.89;61.39
61805;BME280;47725;47.912;7.356;2022-09-09T01:39:57;98964.70;;;17.88;61.59
61805;BME280;47725;47.912;7.356;2022-09-09T01:43:57;98967.99;;;17.88;61.55
61805;BME280;47725;47.912;7.356;2022-09-09T01:47:57;98968.06;;;17.90;61.24
61805;BME280;47725;47.912;7.356;2022-09-09T01:56:00;98967.58;;;17.92;61.54
61805;BME280;47725;47.912;7.356;2022-09-09T02:00:05;98964.86;;;17.91;61.47
61805;BME280;47725;47.912;7.356;2022-09-09T02:03:57;98963.64;;;17.90;61.56
61805;BME280;47725;47.912;7.356;2022-09-09T02:08:03;98963.30;;;17.89;61.67
61805;BME280;47725;47.912;7.356;2022-09-09T02:12:00;98962.70;;;17.87;61.74
61805;BME280;47725;47.912;7.356;2022-09-09T02:16:00;98960.16;;;17.85;61.82
61805;BME280;47725;47.912;7.356;2022-09-09T02:20:00;98958.81;;;17.82;61.98
61805;BME280;47725;47.912;7.356;2022-09-09T02:23:58;98958.65;;;17.80;62.03
61805;BME280;47725;47.912;7.356;2022-09-09T02:27:57;98957.64;;;17.77;61.89
61805;BME280;47725;47.912;7.356;2022-09-09T02:31:59;98957.23;;;17.76;61.98
61805;BME280;47725;47.912;7.356;2022-09-09T02:35:57;98956.66;;;17.74;62.11
61805;BME280;47725;47.912;7.356;2022-09-09T02:39:57;98956.84;;;17.72;62.35
61805;BME280;47725;47.912;7.356;2022-09-09T02:43:57;98958.06;;;17.72;62.02
61805;BME280;47725;47.912;7.356;2022-09-09T02:48:09;98958.56;;;17.72;62.11
61805;BME280;47725;47.912;7.356;2022-09-09T02:52:01;98959.06;;;17.72;62.01
61805;BME280;47725;47.912;7.356;2022-09-09T02:56:04;98960.35;;;17.72;62.34
61805;BME280;47725;47.912;7.356;2022-09-09T02:59:58;98959.79;;;17.70;62.58
61805;BME280;47725;47.912;7.356;2022-09-09T03:03:57;98958.08;;;17.69;62.81
61805;BME280;47725;47.912;7.356;2022-09-09T03:07:58;98956.56;;;17.68;62.69
61805;BME280;47725;47.912;7.356;2022-09-09T03:11:58;98955.94;;;17.69;62.54
61805;BME280;47725;47.912;7.356;2022-09-09T03:15:57;98955.27;;;17.70;62.46
61805;BME280;47725;47.912;7.356;2022-09-09T03:19:57;98955.13;;;17.69;62.71
61805;BME280;47725;47.912;7.356;2022-09-09T03:23:57;98956.25;;;17.66;63.11
61805;BME280;47725;47.912;7.356;2022-09-09T03:27:58;98958.59;;;17.62;63.29
61805;BME280;47725;47.912;7.356;2022-09-09T03:31:57;98960.01;;;17.58;63.38
61805;BME280;47725;47.912;7.356;2022-09-09T03:35:57;98961.94;;;17.56;63.38
61805;BME280;47725;47.912;7.356;2022-09-09T03:39:57;98963.01;;;17.53;63.58
61805;BME280;47725;47.912;7.356;2022-09-09T03:43:57;98963.68;;;17.51;63.40
61805;BME280;47725;47.912;7.356;2022-09-09T03:47:57;98963.59;;;17.48;63.58
61805;BME280;47725;47.912;7.356;2022-09-09T03:51:57;98964.37;;;17.45;63.72
61805;BME280;47725;47.912;7.356;2022-09-09T03:55:57;98963.72;;;17.42;63.82
61805;BME280;47725;47.912;7.356;2022-09-09T03:59:57;98960.27;;;17.42;63.48
61805;BME280;47725;47.912;7.356;2022-09-09T04:03:57;98956.27;;;17.43;63.46
61805;BME280;47725;47.912;7.356;2022-09-09T04:07:57;98953.03;;;17.45;63.69
61805;BME280;47725;47.912;7.356;2022-09-09T04:11:57;98950.25;;;17.47;63.57
61805;BME280;47725;47.912;7.356;2022-09-09T04:15:58;98947.63;;;17.47;63.77
61805;BME280;47725;47.912;7.356;2022-09-09T04:19:57;98946.14;;;17.48;63.69
61805;BME280;47725;47.912;7.356;2022-09-09T04:23:57;98945.59;;;17.50;63.54
61805;BME280;47725;47.912;7.356;2022-09-09T04:27:57;98946.08;;;17.53;63.61
61805;BME280;47725;47.912;7.356;2022-09-09T04:31:57;98944.70;;;17.56;63.22
61805;BME280;47725;47.912;7.356;2022-09-09T04:35:57;98943.14;;;17.58;63.47
61805;BME280;47725;47.912;7.356;2022-09-09T04:39:57;98943.16;;;17.59;63.48
61805;BME280;47725;47.912;7.356;2022-09-09T04:43:57;98943.56;;;17.62;63.27
61805;BME280;47725;47.912;7.356;2022-09-09T04:47:57;98942.38;;;17.65;63.29
61805;BME280;47725;47.912;7.356;2022-09-09T04:51:57;98942.10;;;17.68;63.18
61805;BME280;47725;47.912;7.356;2022-09-09T04:56:01;98942.94;;;17.72;63.40
61805;BME280;47725;47.912;7.356;2022-09-09T04:59:58;98945.15;;;17.73;63.55
61805;BME280;47725;47.912;7.356;2022-09-09T05:03:57;98947.25;;;17.76;63.22
61805;BME280;47725;47.912;7.356;2022-09-09T05:08:07;98948.24;;;17.79;63.32
61805;BME280;47725;47.912;7.356;2022-09-09T05:11:57;98949.47;;;17.82;63.63
61805;BME280;47725;47.912;7.356;2022-09-09T05:15:57;98950.36;;;17.83;63.66
61805;BME280;47725;47.912;7.356;2022-09-09T05:19:57;98951.76;;;17.84;63.63
61805;BME280;47725;47.912;7.356;2022-09-09T05:23:57;98952.58;;;17.84;63.92
61805;BME280;47725;47.912;7.356;2022-09-09T05:27:58;98953.74;;;17.84;63.93
61805;BME280;47725;47.912;7.356;2022-09-09T05:31:57;98955.88;;;17.84;64.08
61805;BME280;47725;47.912;7.356;2022-09-09T05:35:58;98960.30;;;17.84;64.12
61805;BME280;47725;47.912;7.356;2022-09-09T05:39:57;98964.69;;;17.85;64.03
61805;BME280;47725;47.912;7.356;2022-09-09T05:43:57;98966.05;;;17.87;63.92
61805;BME280;47725;47.912;7.356;2022-09-09T05:47:57;98967.99;;;17.89;64.05
61805;BME280;47725;47.912;7.356;2022-09-09T05:51:57;98970.04;;;17.90;64.11
61805;BME280;47725;47.912;7.356;2022-09-09T05:56:06;98973.25;;;17.93;63.75
61805;BME280;47725;47.912;7.356;2022-09-09T05:59:57;98975.92;;;17.97;63.47
61805;BME280;47725;47.912;7.356;2022-09-09T06:03:57;98977.12;;;18.02;63.33
61805;BME280;47725;47.912;7.356;2022-09-09T06:07:57;98978.23;;;18.07;63.36
61805;BME280;47725;47.912;7.356;2022-09-09T06:11:57;98981.34;;;18.10;63.32
61805;BME280;47725;47.912;7.356;2022-09-09T06:15:57;98984.05;;;18.13;63.29
61805;BME280;47725;47.912;7.356;2022-09-09T06:19:57;98987.67;;;18.16;63.55
61805;BME280;47725;47.912;7.356;2022-09-09T06:23:58;98990.01;;;18.22;63.23
61805;BME280;47725;47.912;7.356;2022-09-09T06:27:57;98989.92;;;18.29;63.29
61805;BME280;47725;47.912;7.356;2022-09-09T06:31:57;98989.84;;;18.37;63.07
61805;BME280;47725;47.912;7.356;2022-09-09T06:35:57;98989.51;;;18.41;62.95
61805;BME280;47725;47.912;7.356;2022-09-09T06:39:57;98988.59;;;18.47;62.90
61805;BME280;47725;47.912;7.356;2022-09-09T06:43:57;98988.17;;;18.53;62.72
61805;BME280;47725;47.912;7.356;2022-09-09T06:47:57;98990.66;;;18.58;62.62
61805;BME280;47725;47.912;7.356;2022-09-09T06:51:57;98994.78;;;18.63;62.56
61805;BME280;47725;47.912;7.356;2022-09-09T06:55:57;98997.55;;;18.68;62.41
61805;BME280;47725;47.912;7.356;2022-09-09T06:59:57;98999.11;;;18.70;62.55
61805;BME280;47725;47.912;7.356;2022-09-09T07:03:58;99001.17;;;18.73;62.77
61805;BME280;47725;47.912;7.356;2022-09-09T07:07:57;99003.55;;;18.78;62.56
61805;BME280;47725;47.912;7.356;2022-09-09T07:11:57;99005.83;;;18.87;62.01
61805;BME280;47725;47.912;7.356;2022-09-09T07:16:07;99008.52;;;18.96;61.73
61805;BME280;47725;47.912;7.356;2022-09-09T07:19:57;99010.29;;;19.06;61.33
61805;BME280;47725;47.912;7.356;2022-09-09T07:23:57;99013.09;;;19.15;61.16
61805;BME280;47725;47.912;7.356;2022-09-09T07:27:57;99014.70;;;19.25;61.27
61805;BME280;47725;47.912;7.356;2022-09-09T07:31:57;99014.99;;;19.32;60.72
61805;BME280;47725;47.912;7.356;2022-09-09T07:36:04;99013.86;;;19.36;60.85
61805;BME280;47725;47.912;7.356;2022-09-09T07:39:57;99012.20;;;19.41;60.93
61805;BME280;47725;47.912;7.356;2022-09-09T07:43:57;99011.57;;;19.47;60.59
61805;BME280;47725;47.912;7.356;2022-09-09T07:47:57;99010.38;;;19.55;60.06
61805;BME280;47725;47.912;7.356;2022-09-09T07:51:57;99007.50;;;19.62;59.65
61805;BME280;47725;47.912;7.356;2022-09-09T07:56:04;99005.20;;;19.70;59.59
61805;BME280;47725;47.912;7.356;2022-09-09T07:59:57;99005.87;;;19.80;59.39
61805;BME280;47725;47.912;7.356;2022-09-09T08:04:02;99009.36;;;19.91;58.85
61805;BME280;47725;47.912;7.356;2022-09-09T08:07:57;99013.59;;;20.00;57.91
61805;BME280;47725;47.912;7.356;2022-09-09T08:11:57;99018.55;;;20.10;58.03
61805;BME280;47725;47.912;7.356;2022-09-09T08:16:04;99022.03;;;20.20;57.50
61805;BME280;47725;47.912;7.356;2022-09-09T08:19:57;99024.92;;;20.34;57.60
61805;BME280;47725;47.912;7.356;2022-09-09T08:23:58;99028.85;;;20.51;56.38
61805;BME280;47725;47.912;7.356;2022-09-09T08:27:57;99031.97;;;20.67;55.14
61805;BME280;47725;47.912;7.356;2022-09-09T08:31:57;99033.61;;;20.84;54.69
61805;BME280;47725;47.912;7.356;2022-09-09T08:35:57;99034.63;;;21.02;52.94
61805;BME280;47725;47.912;7.356;2022-09-09T08:39:57;99036.36;;;21.15;52.99
61805;BME280;47725;47.912;7.356;2022-09-09T08:44:17;99039.71;;;21.20;53.10
61805;BME280;47725;47.912;7.356;2022-09-09T08:48:07;99040.13;;;21.20;53.64
61805;BME280;47725;47.912;7.356;2022-09-09T08:51:57;99041.47;;;21.19;53.50
61805;BME280;47725;47.912;7.356;2022-09-09T08:55:58;99043.63;;;21.17;53.02
61805;BME280;47725;47.912;7.356;2022-09-09T08:59:57;99045.49;;;21.14;53.89
61805;BME280;47725;47.912;7.356;2022-09-09T09:11:57;99043.78;;;21.34;52.67
61805;BME280;47725;47.912;7.356;2022-09-09T09:16:00;99039.11;;;21.47;51.80
61805;BME280;47725;47.912;7.356;2022-09-09T09:19:57;99034.80;;;21.63;51.88
61805;BME280;47725;47.912;7.356;2022-09-09T09:23:58;99032.09;;;21.82;49.91
61805;BME280;47725;47.912;7.356;2022-09-09T09:28:07;99028.69;;;22.00;50.00
61805;BME280;47725;47.912;7.356;2022-09-09T09:31:58;99026.78;;;22.19;48.49
61805;BME280;47725;47.912;7.356;2022-09-09T09:35:57;99027.69;;;22.37;48.63
61805;BME280;47725;47.912;7.356;2022-09-09T09:40:13;99029.67;;;22.52;48.40
61805;BME280;47725;47.912;7.356;2022-09-09T09:43:57;99031.37;;;22.62;47.80
61805;BME280;47725;47.912;7.356;2022-09-09T09:47:58;99036.99;;;22.66;47.64
61805;BME280;47725;47.912;7.356;2022-09-09T09:52:00;99041.69;;;22.63;47.81
61805;BME280;47725;47.912;7.356;2022-09-09T09:56:04;99047.77;;;22.55;47.70
61805;BME280;47725;47.912;7.356;2022-09-09T10:00:00;99052.08;;;22.45;48.63
61805;BME280;47725;47.912;7.356;2022-09-09T10:03:58;99056.05;;;22.35;49.92
61805;BME280;47725;47.912;7.356;2022-09-09T10:08:13;99058.51;;;22.22;50.67
61805;BME280;47725;47.912;7.356;2022-09-09T10:36:01;99064.09;;;21.52;51.33
61805;BME280;47725;47.912;7.356;2022-09-09T10:40:02;99062.86;;;21.43;51.65
61805;BME280;47725;47.912;7.356;2022-09-09T10:48:06;99056.53;;;21.46;49.85
61805;BME280;47725;47.912;7.356;2022-09-09T10:52:17;99052.78;;;21.58;49.44
61805;BME280;47725;47.912;7.356;2022-09-09T10:55:59;99049.55;;;21.74;48.64
61805;BME280;47725;47.912;7.356;2022-09-09T10:59:59;99046.90;;;21.88;47.92
61805;BME280;47725;47.912;7.356;2022-09-09T11:04:05;99045.70;;;21.97;48.57
61805;BME280;47725;47.912;7.356;2022-09-09T11:07:58;99046.25;;;22.05;48.88
61805;BME280;47725;47.912;7.356;2022-09-09T11:11:58;99048.52;;;22.10;47.47
61805;BME280;47725;47.912;7.356;2022-09-09T11:16:03;99049.38;;;22.12;48.16
61805;BME280;47725;47.912;7.356;2022-09-09T11:19:57;99049.41;;;22.15;47.02
61805;BME280;47725;47.912;7.356;2022-09-09T11:24:04;99046.35;;;22.15;47.03
61805;BME280;47725;47.912;7.356;2022-09-09T11:32:03;99041.50;;;22.14;47.49
61805;BME280;47725;47.912;7.356;2022-09-09T11:40:04;99040.94;;;22.30;46.11
61805;BME280;47725;47.912;7.356;2022-09-09T11:43:57;99042.50;;;22.37;45.62
61805;BME280;47725;47.912;7.356;2022-09-09T11:47:57;99043.17;;;22.44;46.57
61805;BME280;47725;47.912;7.356;2022-09-09T11:51:57;99043.08;;;22.55;46.78
61805;BME280;47725;47.912;7.356;2022-09-09T11:56:01;99045.23;;;22.65;46.05
61805;BME280;47725;47.912;7.356;2022-09-09T11:59:57;99048.32;;;22.72;45.61
61805;BME280;47725;47.912;7.356;2022-09-09T12:04:13;99049.93;;;22.71;45.88
61805;BME280;47725;47.912;7.356;2022-09-09T12:07:57;99048.92;;;22.62;45.20
61805;BME280;47725;47.912;7.356;2022-09-09T12:12:06;99046.00;;;22.53;45.14
61805;BME280;47725;47.912;7.356;2022-09-09T12:15:58;99044.83;;;22.48;46.24
61805;BME280;47725;47.912;7.356;2022-09-09T12:32:06;99048.24;;;22.68;45.45
61805;BME280;47725;47.912;7.356;2022-09-09T12:35:57;99048.69;;;22.65;45.81
61805;BME280;47725;47.912;7.356;2022-09-09T12:40:00;99050.76;;;22.61;46.09
61805;BME280;47725;47.912;7.356;2022-09-09T12:44:09;99052.04;;;22.56;45.58
61805;BME280;47725;47.912;7.356;2022-09-09T12:47:57;99049.22;;;22.52;45.53
61805;BME280;47725;47.912;7.356;2022-09-09T12:51:57;99048.25;;;22.46;45.12
61805;BME280;47725;47.912;7.356;2022-09-09T12:55:58;99047.13;;;22.39;45.67
61805;BME280;47725;47.912;7.356;2022-09-09T13:03:57;99038.59;;;22.21;47.13
61805;BME280;47725;47.912;7.356;2022-09-09T13:08:00;99034.34;;;22.09;48.85
61805;BME280;47725;47.912;7.356;2022-09-09T13:11:57;99030.20;;;22.05;49.90
61805;BME280;47725;47.912;7.356;2022-09-09T13:15:57;99026.59;;;22.10;48.63
61805;BME280;47725;47.912;7.356;2022-09-09T13:19:57;99023.30;;;22.21;48.00
61805;BME280;47725;47.912;7.356;2022-09-09T13:23:57;99020.19;;;22.36;47.15
61805;BME280;47725;47.912;7.356;2022-09-09T13:28:03;99018.42;;;22.52;46.03
61805;BME280;47725;47.912;7.356;2022-09-09T13:32:06;99016.99;;;22.69;46.38
61805;BME280;47725;47.912;7.356;2022-09-09T13:35:57;99017.10;;;22.84;46.32
61805;BME280;47725;47.912;7.356;2022-09-09T13:39:57;99016.68;;;23.02;45.26
61805;BME280;47725;47.912;7.356;2022-09-09T13:43:57;99014.90;;;23.19;46.02
61805;BME280;47725;47.912;7.356;2022-09-09T13:47:57;99011.93;;;23.36;45.65
61805;BME280;47725;47.912;7.356;2022-09-09T13:52:08;99009.17;;;23.52;44.48
61805;BME280;47725;47.912;7.356;2022-09-09T13:55:57;99009.47;;;23.67;43.94
61805;BME280;47725;47.912;7.356;2022-09-09T13:59:57;99008.64;;;23.82;44.49
61805;BME280;47725;47.912;7.356;2022-09-09T14:03:57;99009.50;;;23.98;42.43
61805;BME280;47725;47.912;7.356;2022-09-09T14:07:57;99010.42;;;24.08;42.04
61805;BME280;47725;47.912;7.356;2022-09-09T14:11:57;99009.59;;;24.10;41.63
61805;BME280;47725;47.912;7.356;2022-09-09T14:15:57;99007.22;;;24.07;42.11
61805;BME280;47725;47.912;7.356;2022-09-09T14:19:57;99005.24;;;23.99;42.17
61805;BME280;47725;47.912;7.356;2022-09-09T14:23:57;99004.67;;;23.94;43.20
61805;BME280;47725;47.912;7.356;2022-09-09T14:27:57;99005.08;;;23.94;42.58
61805;BME280;47725;47.912;7.356;2022-09-09T14:31:57;99005.40;;;23.91;42.78
61805;BME280;47725;47.912;7.356;2022-09-09T14:35:57;99006.78;;;23.85;42.86
61805;BME280;47725;47.912;7.356;2022-09-09T14:39:57;99006.67;;;23.78;43.32
61805;BME280;47725;47.912;7.356;2022-09-09T14:43:57;99004.65;;;23.71;43.59
61805;BME280;47725;47.912;7.356;2022-09-09T14:47:57;99002.04;;;23.65;43.92
61805;BME280;47725;47.912;7.356;2022-09-09T14:51:57;98998.99;;;23.61;43.94
61805;BME280;47725;47.912;7.356;2022-09-09T14:56:06;98994.98;;;23.57;44.56
61805;BME280;47725;47.912;7.356;2022-09-09T14:59:57;98991.42;;;23.52;44.65
61805;BME280;47725;47.912;7.356;2022-09-09T15:03:58;98989.14;;;23.46;45.01
61805;BME280;47725;47.912;7.356;2022-09-09T15:07:57;98989.64;;;23.38;45.42
61805;BME280;47725;47.912;7.356;2022-09-09T15:11:57;98991.28;;;23.30;45.43
61805;BME280;47725;47.912;7.356;2022-09-09T15:16:03;98992.22;;;23.24;45.87
61805;BME280;47725;47.912;7.356;2022-09-09T15:19:57;98992.77;;;23.19;46.41
61805;BME280;47725;47.912;7.356;2022-09-09T15:23:57;98995.62;;;23.13;46.97
61805;BME280;47725;47.912;7.356;2022-09-09T15:27:57;99000.95;;;23.05;47.27
61805;BME280;47725;47.912;7.356;2022-09-09T15:31:57;99008.87;;;22.97;47.45
61805;BME280;47725;47.912;7.356;2022-09-09T15:35:57;99021.08;;;22.91;48.45
61805;BME280;47725;47.912;7.356;2022-09-09T15:39:57;99027.78;;;22.77;50.80
61805;BME280;47725;47.912;7.356;2022-09-09T15:43:57;99034.52;;;22.56;52.10
61805;BME280;47725;47.912;7.356;2022-09-09T15:47:57;99040.17;;;22.32;52.89
61805;BME280;47725;47.912;7.356;2022-09-09T15:51:58;99043.12;;;22.12;53.73
61805;BME280;47725;47.912;7.356;2022-09-09T15:55:57;99042.36;;;21.93;53.49
61805;BME280;47725;47.912;7.356;2022-09-09T15:59:57;99043.07;;;21.75;54.68
61805;BME280;47725;47.912;7.356;2022-09-09T16:03:57;99044.12;;;21.59;55.48
61805;BME280;47725;47.912;7.356;2022-09-09T16:07:57;99046.04;;;21.44;56.35
61805;BME280;47725;47.912;7.356;2022-09-09T16:11:57;99048.77;;;21.33;56.23
61805;BME280;47725;47.912;7.356;2022-09-09T16:15:57;99049.91;;;21.24;57.08
61805;BME280;47725;47.912;7.356;2022-09-09T16:19:57;99048.75;;;21.19;57.26
61805;BME280;47725;47.912;7.356;2022-09-09T16:24:00;99046.67;;;21.16;57.07
61805;BME280;47725;47.912;7.356;2022-09-09T16:27:56;99043.22;;;21.15;57.24
61805;BME280;47725;47.912;7.356;2022-09-09T16:31:56;99039.09;;;21.15;56.78
61805;BME280;47725;47.912;7.356;2022-09-09T16:35:56;99035.72;;;21.13;56.86
61805;BME280;47725;47.912;7.356;2022-09-09T16:39:56;99034.14;;;21.13;56.50
61805;BME280;47725;47.912;7.356;2022-09-09T16:43:57;99034.80;;;21.13;56.93
61805;BME280;47725;47.912;7.356;2022-09-09T16:47:56;99037.34;;;21.11;56.95
61805;BME280;47725;47.912;7.356;2022-09-09T16:51:57;99039.78;;;21.06;57.16
61805;BME280;47725;47.912;7.356;2022-09-09T16:55:56;99044.31;;;21.01;57.37
61805;BME280;47725;47.912;7.356;2022-09-09T16:59:56;99048.72;;;20.93;58.24
61805;BME280;47725;47.912;7.356;2022-09-09T17:03:58;99052.83;;;20.86;58.36
61805;BME280;47725;47.912;7.356;2022-09-09T17:07:56;99055.97;;;20.78;58.64
61805;BME280;47725;47.912;7.356;2022-09-09T17:11:56;99058.23;;;20.72;58.31
61805;BME280;47725;47.912;7.356;2022-09-09T17:15:56;99059.21;;;20.67;56.87
61805;BME280;47725;47.912;7.356;2022-09-09T17:19:56;99061.28;;;20.62;56.90
61805;BME280;47725;47.912;7.356;2022-09-09T17:23:57;99064.04;;;20.57;57.10
61805;BME280;47725;47.912;7.356;2022-09-09T17:27:56;99066.49;;;20.51;58.05
61805;BME280;47725;47.912;7.356;2022-09-09T17:31:56;99069.87;;;20.44;58.06
61805;BME280;47725;47.912;7.356;2022-09-09T17:35:57;99073.16;;;20.37;57.67
61805;BME280;47725;47.912;7.356;2022-09-09T17:39:56;99076.10;;;20.31;58.09
61805;BME280;47725;47.912;7.356;2022-09-09T17:43:57;99077.17;;;20.26;58.13
61805;BME280;47725;47.912;7.356;2022-09-09T17:47:56;99078.06;;;20.21;58.17
61805;BME280;47725;47.912;7.356;2022-09-09T17:51:56;99079.57;;;20.16;58.54
61805;BME280;47725;47.912;7.356;2022-09-09T17:56:06;99081.48;;;20.09;58.84
61805;BME280;47725;47.912;7.356;2022-09-09T17:59:56;99083.95;;;20.07;58.39
61805;BME280;47725;47.912;7.356;2022-09-09T18:03:58;99085.97;;;20.05;58.59
61805;BME280;47725;47.912;7.356;2022-09-09T18:07:56;99085.83;;;20.00;59.19
61805;BME280;47725;47.912;7.356;2022-09-09T18:11:57;99085.16;;;19.95;59.43
61805;BME280;47725;47.912;7.356;2022-09-09T18:15:56;99086.03;;;19.89;59.86
61805;BME280;47725;47.912;7.356;2022-09-09T18:19:56;99087.97;;;19.83;59.94
61805;BME280;47725;47.912;7.356;2022-09-09T18:23:58;99091.04;;;19.79;59.98
61805;BME280;47725;47.912;7.356;2022-09-09T18:27:56;99093.58;;;19.74;60.27
61805;BME280;47725;47.912;7.356;2022-09-09T18:31:56;99094.67;;;19.70;60.36
61805;BME280;47725;47.912;7.356;2022-09-09T18:35:56;99096.62;;;19.65;60.36
61805;BME280;47725;47.912;7.356;2022-09-09T18:39:56;99099.94;;;19.61;60.48
61805;BME280;47725;47.912;7.356;2022-09-09T18:43:57;99103.83;;;19.56;60.98
61805;BME280;47725;47.912;7.356;2022-09-09T18:47:56;99108.15;;;19.51;61.25
61805;BME280;47725;47.912;7.356;2022-09-09T18:51:56;99113.31;;;19.47;61.62
61805;BME280;47725;47.912;7.356;2022-09-09T18:56:14;99120.95;;;19.44;61.44
61805;BME280;47725;47.912;7.356;2022-09-09T18:59:56;99127.03;;;19.42;61.55
61805;BME280;47725;47.912;7.356;2022-09-09T19:03:56;99135.83;;;19.40;61.75
61805;BME280;47725;47.912;7.356;2022-09-09T19:07:56;99143.53;;;19.37;61.76
61805;BME280;47725;47.912;7.356;2022-09-09T19:11:57;99149.59;;;19.36;60.87
61805;BME280;47725;47.912;7.356;2022-09-09T19:16:03;99154.80;;;19.35;60.97
61805;BME280;47725;47.912;7.356;2022-09-09T19:19:56;99158.83;;;19.35;60.54
61805;BME280;47725;47.912;7.356;2022-09-09T19:24:01;99161.05;;;19.35;60.20
61805;BME280;47725;47.912;7.356;2022-09-09T19:27:56;99163.59;;;19.35;59.86
61805;BME280;47725;47.912;7.356;2022-09-09T19:31:57;99167.10;;;19.34;59.51
61805;BME280;47725;47.912;7.356;2022-09-09T19:35:57;99168.30;;;19.34;59.18
61805;BME280;47725;47.912;7.356;2022-09-09T19:39:56;99169.15;;;19.33;59.25
61805;BME280;47725;47.912;7.356;2022-09-09T19:43:58;99169.85;;;19.32;59.08
61805;BME280;47725;47.912;7.356;2022-09-09T19:47:56;99170.63;;;19.30;58.85
61805;BME280;47725;47.912;7.356;2022-09-09T19:51:56;99172.34;;;19.21;59.83
61805;BME280;47725;47.912;7.356;2022-09-09T19:55:56;99173.16;;;19.15;59.32
61805;BME280;47725;47.912;7.356;2022-09-09T19:59:56;99172.67;;;19.07;59.65
61805;BME280;47725;47.912;7.356;2022-09-09T20:03:57;99171.19;;;19.00;59.69
61805;BME280;47725;47.912;7.356;2022-09-09T20:07:56;99171.83;;;18.93;59.96
61805;BME280;47725;47.912;7.356;2022-09-09T20:11:56;99172.24;;;18.87;60.11
61805;BME280;47725;47.912;7.356;2022-09-09T20:15:57;99171.81;;;18.82;60.11
61805;BME280;47725;47.912;7.356;2022-09-09T20:19:56;99170.54;;;18.78;60.16
61805;BME280;47725;47.912;7.356;2022-09-09T20:23:57;99170.90;;;18.80;59.07
61805;BME280;47725;47.912;7.356;2022-09-09T20:27:56;99171.37;;;18.77;59.90
61805;BME280;47725;47.912;7.356;2022-09-09T20:31:56;99171.14;;;18.73;59.82
61805;BME280;47725;47.912;7.356;2022-09-09T20:35:56;99169.12;;;18.67;59.97
61805;BME280;47725;47.912;7.356;2022-09-09T20:39:56;99166.56;;;18.63;59.79
61805;BME280;47725;47.912;7.356;2022-09-09T20:44:00;99165.09;;;18.58;59.76
61805;BME280;47725;47.912;7.356;2022-09-09T20:47:56;99162.78;;;18.54;59.78
61805;BME280;47725;47.912;7.356;2022-09-09T20:51:56;99161.75;;;18.50;59.69
61805;BME280;47725;47.912;7.356;2022-09-09T20:56:02;99161.69;;;18.46;59.57
61805;BME280;47725;47.912;7.356;2022-09-09T20:59:56;99163.65;;;18.44;59.83
61805;BME280;47725;47.912;7.356;2022-09-09T21:03:56;99165.35;;;18.42;59.24
61805;BME280;47725;47.912;7.356;2022-09-09T21:07:56;99166.63;;;18.40;59.24
61805;BME280;47725;47.912;7.356;2022-09-09T21:11:56;99167.67;;;18.38;59.30
61805;BME280;47725;47.912;7.356;2022-09-09T21:15:56;99169.12;;;18.36;59.33
61805;BME280;47725;47.912;7.356;2022-09-09T21:19:56;99169.36;;;18.33;59.54
61805;BME280;47725;47.912;7.356;2022-09-09T21:23:56;99169.59;;;18.30;59.81
61805;BME280;47725;47.912;7.356;2022-09-09T21:27:56;99169.53;;;18.26;59.87
61805;BME280;47725;47.912;7.356;2022-09-09T21:31:56;99171.15;;;18.23;60.14
61805;BME280;47725;47.912;7.356;2022-09-09T21:36:02;99173.43;;;18.20;60.28
61805;BME280;47725;47.912;7.356;2022-09-09T21:39:56;99174.73;;;18.18;60.29
61805;BME280;47725;47.912;7.356;2022-09-09T21:43:56;99174.39;;;18.16;60.12
61805;BME280;47725;47.912;7.356;2022-09-09T21:47:56;99171.37;;;18.14;60.33
61805;BME280;47725;47.912;7.356;2022-09-09T21:51:56;99169.30;;;18.13;60.25
61805;BME280;47725;47.912;7.356;2022-09-09T21:55:59;99165.66;;;18.12;60.28
61805;BME280;47725;47.912;7.356;2022-09-09T21:59:56;99165.24;;;18.10;60.37
61805;BME280;47725;47.912;7.356;2022-09-09T22:03:56;99164.92;;;18.09;60.44
61805;BME280;47725;47.912;7.356;2022-09-09T22:07:56;99165.12;;;18.14;59.36
61805;BME280;47725;47.912;7.356;2022-09-09T22:11:56;99165.23;;;18.20;59.19
61805;BME280;47725;47.912;7.356;2022-09-09T22:15:57;99167.02;;;18.22;60.09
61805;BME280;47725;47.912;7.356;2022-09-09T22:19:56;99166.63;;;18.20;60.25
61805;BME280;47725;47.912;7.356;2022-09-09T22:23:57;99164.40;;;18.19;60.20
61805;BME280;47725;47.912;7.356;2022-09-09T22:27:56;99164.01;;;18.23;59.23
61805;BME280;47725;47.912;7.356;2022-09-09T22:31:56;99165.34;;;18.28;59.12